sensor_id;sensor_type;location;lat;lon;timestamp;P1;durP1;ratioP1;P2;durP2;ratioP2
63943;SDS011;50121;51.218;7.664;2024-02-15T00:00:02;3.78;;;3.47;;
63943;SDS011;50121;51.218;7.664;2024-02-15T00:02:30;3.95;;;3.65;;
63943;SDS011;50121;51.218;7.664;2024-02-15T00:04:57;4.05;;;3.75;;
63943;SDS011;50121;51.218;7.664;2024-02-15T00:07:25;5.22;;;4.88;;
63943;SDS011;50121;51.218;7.664;2024-02-15T00:09:53;4.13;;;3.63;;
63943;SDS011;50121;51.218;7.664;2024-02-15T00:12:21;3.92;;;3.63;;
63943;SDS011;50121;51.218;7.664;2024-02-15T00:14:48;4.03;;;3.63;;
63943;SDS011;50121;51.218;7.664;2024-02-15T00:17:17;4.10;;;3.70;;
63943;SDS011;50121;51.218;7.664;2024-02-15T00:19:44;3.92;;;3.63;;
63943;SDS011;50121;51.218;7.664;2024-02-15T00:22:13;4.55;;;3.92;;
63943;SDS011;50121;51.218;7.664;2024-02-15T00:24:41;4.18;;;3.85;;
63943;SDS011;50121;51.218;7.664;2024-02-15T00:27:10;6.85;;;4.03;;
63943;SDS011;50121;51.218;7.664;2024-02-15T00:29:38;4.70;;;4.30;;
63943;SDS011;50121;51.218;7.664;2024-02-15T00:32:07;4.90;;;4.50;;
63943;SDS011;50121;51.218;7.664;2024-02-15T00:34:34;6.55;;;4.18;;
63943;SDS011;50121;51.218;7.664;2024-02-15T00:37:02;4.80;;;4.40;;
63943;SDS011;50121;51.218;7.664;2024-02-15T00:39:30;5.40;;;4.63;;
63943;SDS011;50121;51.218;7.664;2024-02-15T00:41:58;4.32;;;4.00;;
63943;SDS011;50121;51.218;7.664;2024-02-15T00:44:30;4.32;;;3.88;;
63943;SDS011;50121;51.218;7.664;2024-02-15T00:46:57;5.45;;;4.03;;
63943;SDS011;50121;51.218;7.664;2024-02-15T00:49:25;4.25;;;3.92;;
63943;SDS011;50121;51.218;7.664;2024-02-15T00:51:54;4.35;;;3.97;;
63943;SDS011;50121;51.218;7.664;2024-02-15T00:54:22;4.97;;;4.05;;
63943;SDS011;50121;51.218;7.664;2024-02-15T00:56:50;4.43;;;4.13;;
63943;SDS011;50121;51.218;7.664;2024-02-15T00:59:18;5.78;;;4.18;;
63943;SDS011;50121;51.218;7.664;2024-02-15T01:01:45;4.53;;;4.22;;
63943;SDS011;50121;51.218;7.664;2024-02-15T01:04:15;4.95;;;3.80;;
63943;SDS011;50121;51.218;7.664;2024-02-15T01:06:42;4.00;;;3.70;;
63943;SDS011;50121;51.218;7.664;2024-02-15T01:09:10;4.03;;;3.72;;
63943;SDS011;50121;51.218;7.664;2024-02-15T01:11:39;4.30;;;3.90;;
63943;SDS011;50121;51.218;7.664;2024-02-15T01:14:07;4.10;;;3.75;;
63943;SDS011;50121;51.218;7.664;2024-02-15T01:16:36;4.03;;;3.60;;
63943;SDS011;50121;51.218;7.664;2024-02-15T01:19:04;3.83;;;3.53;;
63943;SDS011;50121;51.218;7.664;2024-02-15T01:21:32;4.30;;;4.00;;
63943;SDS011;50121;51.218;7.664;2024-02-15T01:24:03;3.75;;;3.45;;
63943;SDS011;50121;51.218;7.664;2024-02-15T01:26:33;3.95;;;3.65;;
63943;SDS011;50121;51.218;7.664;2024-02-15T01:29:01;4.00;;;3.70;;
63943;SDS011;50121;51.218;7.664;2024-02-15T01:31:29;3.47;;;3.28;;
63943;SDS011;50121;51.218;7.664;2024-02-15T01:33:57;3.88;;;3.58;;
63943;SDS011;50121;51.218;7.664;2024-02-15T01:36:25;3.90;;;3.60;;
63943;SDS011;50121;51.218;7.664;2024-02-15T01:38:53;4.30;;;3.90;;
63943;SDS011;50121;51.218;7.664;2024-02-15T01:41:20;4.85;;;4.13;;
63943;SDS011;50121;51.218;7.664;2024-02-15T01:43:48;5.18;;;4.45;;
63943;SDS011;50121;51.218;7.664;2024-02-15T01:46:16;5.80;;;4.78;;
63943;SDS011;50121;51.218;7.664;2024-02-15T01:48:44;5.43;;;4.93;;
63943;SDS011;50121;51.218;7.664;2024-02-15T01:51:13;5.78;;;5.28;;
63943;SDS011;50121;51.218;7.664;2024-02-15T01:53:42;5.43;;;4.90;;
63943;SDS011;50121;51.218;7.664;2024-02-15T01:56:12;6.50;;;4.72;;
63943;SDS011;50121;51.218;7.664;2024-02-15T01:58:40;5.70;;;5.20;;
63943;SDS011;50121;51.218;7.664;2024-02-15T02:01:09;6.03;;;5.10;;
63943;SDS011;50121;51.218;7.664;2024-02-15T02:03:37;7.15;;;5.55;;
63943;SDS011;50121;51.218;7.664;2024-02-15T02:06:05;6.75;;;5.95;;
63943;SDS011;50121;51.218;7.664;2024-02-15T02:08:33;8.15;;;5.80;;
63943;SDS011;50121;51.218;7.664;2024-02-15T02:11:01;7.57;;;6.07;;
63943;SDS011;50121;51.218;7.664;2024-02-15T02:13:29;8.00;;;6.25;;
63943;SDS011;50121;51.218;7.664;2024-02-15T02:15:57;6.88;;;6.18;;
63943;SDS011;50121;51.218;7.664;2024-02-15T02:18:26;6.90;;;6.10;;
63943;SDS011;50121;51.218;7.664;2024-02-15T02:20:56;11.10;;;7.05;;
63943;SDS011;50121;51.218;7.664;2024-02-15T02:23:25;9.15;;;7.30;;
63943;SDS011;50121;51.218;7.664;2024-02-15T02:25:54;12.65;;;7.93;;
63943;SDS011;50121;51.218;7.664;2024-02-15T02:28:22;11.70;;;8.07;;
63943;SDS011;50121;51.218;7.664;2024-02-15T02:30:50;12.25;;;8.23;;
63943;SDS011;50121;51.218;7.664;2024-02-15T02:33:17;9.63;;;7.05;;
63943;SDS011;50121;51.218;7.664;2024-02-15T02:35:45;10.18;;;7.25;;
63943;SDS011;50121;51.218;7.664;2024-02-15T02:38:14;9.02;;;6.72;;
63943;SDS011;50121;51.218;7.664;2024-02-15T02:40:42;9.05;;;7.25;;
63943;SDS011;50121;51.218;7.664;2024-02-15T02:43:09;8.52;;;7.10;;
63943;SDS011;50121;51.218;7.664;2024-02-15T02:45:37;11.82;;;7.57;;
63943;SDS011;50121;51.218;7.664;2024-02-15T02:48:05;8.50;;;7.55;;
63943;SDS011;50121;51.218;7.664;2024-02-15T02:50:33;9.77;;;7.68;;
63943;SDS011;50121;51.218;7.664;2024-02-15T02:53:00;9.77;;;7.72;;
63943;SDS011;50121;51.218;7.664;2024-02-15T02:55:28;9.95;;;7.32;;
63943;SDS011;50121;51.218;7.664;2024-02-15T02:57:56;9.15;;;7.05;;
63943;SDS011;50121;51.218;7.664;2024-02-15T03:00:23;14.05;;;7.53;;
63943;SDS011;50121;51.218;7.664;2024-02-15T03:02:51;10.00;;;7.70;;
63943;SDS011;50121;51.218;7.664;2024-02-15T03:05:18;10.15;;;7.72;;
63943;SDS011;50121;51.218;7.664;2024-02-15T03:07:47;10.60;;;7.28;;
63943;SDS011;50121;51.218;7.664;2024-02-15T03:10:15;8.68;;;6.43;;
63943;SDS011;50121;51.218;7.664;2024-02-15T03:12:43;10.60;;;7.00;;
63943;SDS011;50121;51.218;7.664;2024-02-15T03:15:13;11.70;;;7.45;;
63943;SDS011;50121;51.218;7.664;2024-02-15T03:17:42;10.07;;;7.15;;
63943;SDS011;50121;51.218;7.664;2024-02-15T03:20:10;8.23;;;6.90;;
63943;SDS011;50121;51.218;7.664;2024-02-15T03:22:40;10.90;;;7.10;;
63943;SDS011;50121;51.218;7.664;2024-02-15T03:25:08;11.35;;;7.00;;
63943;SDS011;50121;51.218;7.664;2024-02-15T03:27:35;8.90;;;7.07;;
63943;SDS011;50121;51.218;7.664;2024-02-15T03:30:06;11.52;;;7.53;;
63943;SDS011;50121;51.218;7.664;2024-02-15T03:32:35;8.05;;;7.25;;
63943;SDS011;50121;51.218;7.664;2024-02-15T03:35:03;9.65;;;6.80;;
63943;SDS011;50121;51.218;7.664;2024-02-15T03:37:31;14.68;;;6.97;;
63943;SDS011;50121;51.218;7.664;2024-02-15T03:40:00;9.95;;;7.20;;
63943;SDS011;50121;51.218;7.664;2024-02-15T03:42:28;9.18;;;6.80;;
63943;SDS011;50121;51.218;7.664;2024-02-15T03:44:56;11.20;;;6.50;;
63943;SDS011;50121;51.218;7.664;2024-02-15T03:47:24;9.80;;;6.85;;
63943;SDS011;50121;51.218;7.664;2024-02-15T03:49:52;6.63;;;6.03;;
63943;SDS011;50121;51.218;7.664;2024-02-15T03:52:22;8.65;;;6.22;;
63943;SDS011;50121;51.218;7.664;2024-02-15T03:54:49;7.70;;;6.28;;
63943;SDS011;50121;51.218;7.664;2024-02-15T03:57:18;9.95;;;6.57;;
63943;SDS011;50121;51.218;7.664;2024-02-15T03:59:47;11.02;;;6.28;;
63943;SDS011;50121;51.218;7.664;2024-02-15T04:02:19;6.95;;;6.32;;
63943;SDS011;50121;51.218;7.664;2024-02-15T04:04:46;6.93;;;5.85;;
63943;SDS011;50121;51.218;7.664;2024-02-15T04:07:15;8.18;;;5.82;;
63943;SDS011;50121;51.218;7.664;2024-02-15T04:09:43;9.02;;;5.63;;
63943;SDS011;50121;51.218;7.664;2024-02-15T04:12:12;8.13;;;5.95;;
63943;SDS011;50121;51.218;7.664;2024-02-15T04:14:40;7.95;;;5.80;;
63943;SDS011;50121;51.218;7.664;2024-02-15T04:17:11;7.85;;;5.55;;
63943;SDS011;50121;51.218;7.664;2024-02-15T04:19:48;9.07;;;5.45;;
63943;SDS011;50121;51.218;7.664;2024-02-15T04:22:17;12.20;;;6.03;;
63943;SDS011;50121;51.218;7.664;2024-02-15T04:24:44;7.97;;;5.40;;
63943;SDS011;50121;51.218;7.664;2024-02-15T04:27:12;10.80;;;5.50;;
63943;SDS011;50121;51.218;7.664;2024-02-15T04:29:44;7.57;;;5.18;;
63943;SDS011;50121;51.218;7.664;2024-02-15T04:32:12;6.65;;;5.20;;
63943;SDS011;50121;51.218;7.664;2024-02-15T04:34:40;7.72;;;6.03;;
63943;SDS011;50121;51.218;7.664;2024-02-15T04:37:07;7.80;;;5.25;;
63943;SDS011;50121;51.218;7.664;2024-02-15T04:39:35;6.32;;;5.10;;
63943;SDS011;50121;51.218;7.664;2024-02-15T04:42:03;8.68;;;5.50;;
63943;SDS011;50121;51.218;7.664;2024-02-15T04:44:32;6.38;;;5.13;;
63943;SDS011;50121;51.218;7.664;2024-02-15T04:47:02;6.07;;;4.97;;
63943;SDS011;50121;51.218;7.664;2024-02-15T04:49:30;7.07;;;4.65;;
63943;SDS011;50121;51.218;7.664;2024-02-15T04:51:58;6.57;;;5.03;;
63943;SDS011;50121;51.218;7.664;2024-02-15T04:54:28;6.55;;;4.65;;
63943;SDS011;50121;51.218;7.664;2024-02-15T04:56:56;6.20;;;4.60;;
63943;SDS011;50121;51.218;7.664;2024-02-15T04:59:24;9.15;;;5.88;;
63943;SDS011;50121;51.218;7.664;2024-02-15T05:01:55;7.55;;;5.40;;
63943;SDS011;50121;51.218;7.664;2024-02-15T05:04:23;8.25;;;5.32;;
63943;SDS011;50121;51.218;7.664;2024-02-15T05:06:51;5.95;;;4.90;;
63943;SDS011;50121;51.218;7.664;2024-02-15T05:09:19;6.20;;;4.68;;
63943;SDS011;50121;51.218;7.664;2024-02-15T05:11:47;6.88;;;4.90;;
63943;SDS011;50121;51.218;7.664;2024-02-15T05:14:15;7.18;;;5.22;;
63943;SDS011;50121;51.218;7.664;2024-02-15T05:16:47;6.05;;;5.07;;
63943;SDS011;50121;51.218;7.664;2024-02-15T05:19:15;9.05;;;5.07;;
63943;SDS011;50121;51.218;7.664;2024-02-15T05:21:43;7.30;;;4.97;;
63943;SDS011;50121;51.218;7.664;2024-02-15T05:24:16;7.97;;;5.10;;
63943;SDS011;50121;51.218;7.664;2024-02-15T05:26:44;5.97;;;5.30;;
63943;SDS011;50121;51.218;7.664;2024-02-15T05:29:15;7.97;;;5.30;;
63943;SDS011;50121;51.218;7.664;2024-02-15T05:31:43;6.22;;;4.82;;
63943;SDS011;50121;51.218;7.664;2024-02-15T05:34:11;9.45;;;5.38;;
63943;SDS011;50121;51.218;7.664;2024-02-15T05:36:39;7.00;;;5.55;;
63943;SDS011;50121;51.218;7.664;2024-02-15T05:39:06;8.18;;;5.07;;
63943;SDS011;50121;51.218;7.664;2024-02-15T05:41:34;9.35;;;5.10;;
63943;SDS011;50121;51.218;7.664;2024-02-15T05:44:02;7.80;;;5.13;;
63943;SDS011;50121;51.218;7.664;2024-02-15T05:49:07;5.70;;;5.10;;
63943;SDS011;50121;51.218;7.664;2024-02-15T05:51:41;8.50;;;5.00;;
63943;SDS011;50121;51.218;7.664;2024-02-15T05:54:10;6.78;;;5.40;;
63943;SDS011;50121;51.218;7.664;2024-02-15T05:56:38;7.15;;;4.80;;
63943;SDS011;50121;51.218;7.664;2024-02-15T05:59:05;5.53;;;4.80;;
63943;SDS011;50121;51.218;7.664;2024-02-15T06:01:37;6.85;;;4.60;;
63943;SDS011;50121;51.218;7.664;2024-02-15T06:04:05;8.02;;;5.25;;
63943;SDS011;50121;51.218;7.664;2024-02-15T06:06:35;8.15;;;5.00;;
63943;SDS011;50121;51.218;7.664;2024-02-15T06:09:03;8.10;;;5.28;;
63943;SDS011;50121;51.218;7.664;2024-02-15T06:11:31;7.70;;;5.10;;
63943;SDS011;50121;51.218;7.664;2024-02-15T06:13:59;6.43;;;5.20;;
63943;SDS011;50121;51.218;7.664;2024-02-15T06:16:27;5.82;;;4.90;;
63943;SDS011;50121;51.218;7.664;2024-02-15T06:18:54;7.63;;;5.45;;
63943;SDS011;50121;51.218;7.664;2024-02-15T06:21:22;15.93;;;10.02;;
63943;SDS011;50121;51.218;7.664;2024-02-15T06:23:50;7.35;;;5.40;;
63943;SDS011;50121;51.218;7.664;2024-02-15T06:26:18;8.38;;;4.93;;
63943;SDS011;50121;51.218;7.664;2024-02-15T06:28:47;8.95;;;5.22;;
63943;SDS011;50121;51.218;7.664;2024-02-15T06:31:33;8.80;;;5.35;;
63943;SDS011;50121;51.218;7.664;2024-02-15T06:34:20;8.68;;;5.30;;
63943;SDS011;50121;51.218;7.664;2024-02-15T06:37:06;10.88;;;5.30;;
63943;SDS011;50121;51.218;7.664;2024-02-15T06:39:52;8.88;;;5.30;;
63943;SDS011;50121;51.218;7.664;2024-02-15T06:42:19;5.93;;;4.68;;
63943;SDS011;50121;51.218;7.664;2024-02-15T06:44:47;6.43;;;5.03;;
63943;SDS011;50121;51.218;7.664;2024-02-15T06:47:15;8.73;;;5.10;;
63943;SDS011;50121;51.218;7.664;2024-02-15T06:49:45;9.90;;;6.05;;
63943;SDS011;50121;51.218;7.664;2024-02-15T06:52:16;13.85;;;8.25;;
63943;SDS011;50121;51.218;7.664;2024-02-15T06:54:44;16.30;;;9.93;;
63943;SDS011;50121;51.218;7.664;2024-02-15T06:57:12;7.95;;;5.78;;
63943;SDS011;50121;51.218;7.664;2024-02-15T06:59:40;10.98;;;6.93;;
63943;SDS011;50121;51.218;7.664;2024-02-15T07:02:10;12.38;;;8.18;;
63943;SDS011;50121;51.218;7.664;2024-02-15T07:04:45;11.48;;;8.27;;
63943;SDS011;50121;51.218;7.664;2024-02-15T07:07:15;10.43;;;6.72;;
63943;SDS011;50121;51.218;7.664;2024-02-15T07:09:43;14.93;;;8.07;;
63943;SDS011;50121;51.218;7.664;2024-02-15T07:12:11;11.18;;;6.18;;
63943;SDS011;50121;51.218;7.664;2024-02-15T07:14:38;12.13;;;6.10;;
63943;SDS011;50121;51.218;7.664;2024-02-15T07:17:06;9.23;;;6.57;;
63943;SDS011;50121;51.218;7.664;2024-02-15T07:19:33;11.48;;;6.03;;
63943;SDS011;50121;51.218;7.664;2024-02-15T07:22:03;8.15;;;6.05;;
63943;SDS011;50121;51.218;7.664;2024-02-15T07:24:30;11.50;;;5.47;;
63943;SDS011;50121;51.218;7.664;2024-02-15T07:26:59;16.48;;;9.07;;
63943;SDS011;50121;51.218;7.664;2024-02-15T07:29:26;14.70;;;8.98;;
63943;SDS011;50121;51.218;7.664;2024-02-15T07:31:54;19.42;;;10.95;;
63943;SDS011;50121;51.218;7.664;2024-02-15T07:34:22;47.75;;;25.13;;
63943;SDS011;50121;51.218;7.664;2024-02-15T07:36:49;38.90;;;20.02;;
63943;SDS011;50121;51.218;7.664;2024-02-15T07:39:18;13.77;;;7.75;;
63943;SDS011;50121;51.218;7.664;2024-02-15T07:41:51;15.57;;;9.80;;
63943;SDS011;50121;51.218;7.664;2024-02-15T07:44:19;7.38;;;5.93;;
63943;SDS011;50121;51.218;7.664;2024-02-15T07:46:47;9.77;;;5.78;;
63943;SDS011;50121;51.218;7.664;2024-02-15T07:49:14;12.50;;;8.23;;
63943;SDS011;50121;51.218;7.664;2024-02-15T07:51:44;11.60;;;6.00;;
63943;SDS011;50121;51.218;7.664;2024-02-15T07:54:23;8.63;;;5.55;;
63943;SDS011;50121;51.218;7.664;2024-02-15T07:56:52;7.97;;;5.65;;
63943;SDS011;50121;51.218;7.664;2024-02-15T07:59:19;8.20;;;5.32;;
63943;SDS011;50121;51.218;7.664;2024-02-15T08:01:47;7.10;;;5.13;;
63943;SDS011;50121;51.218;7.664;2024-02-15T08:04:16;8.15;;;4.97;;
63943;SDS011;50121;51.218;7.664;2024-02-15T08:06:44;7.65;;;6.40;;
63943;SDS011;50121;51.218;7.664;2024-02-15T08:09:12;9.90;;;5.40;;
63943;SDS011;50121;51.218;7.664;2024-02-15T08:11:44;5.30;;;4.80;;
63943;SDS011;50121;51.218;7.664;2024-02-15T08:14:12;10.75;;;5.72;;
63943;SDS011;50121;51.218;7.664;2024-02-15T08:16:39;7.20;;;5.50;;
63943;SDS011;50121;51.218;7.664;2024-02-15T08:19:08;8.43;;;5.10;;
63943;SDS011;50121;51.218;7.664;2024-02-15T08:21:36;9.20;;;4.63;;
63943;SDS011;50121;51.218;7.664;2024-02-15T08:24:05;9.07;;;4.90;;
63943;SDS011;50121;51.218;7.664;2024-02-15T08:26:33;6.20;;;4.80;;
63943;SDS011;50121;51.218;7.664;2024-02-15T08:29:02;9.57;;;4.95;;
63943;SDS011;50121;51.218;7.664;2024-02-15T08:31:41;11.02;;;5.13;;
63943;SDS011;50121;51.218;7.664;2024-02-15T08:34:10;7.70;;;4.40;;
63943;SDS011;50121;51.218;7.664;2024-02-15T08:36:40;8.38;;;4.35;;
63943;SDS011;50121;51.218;7.664;2024-02-15T08:39:08;9.43;;;4.65;;
63943;SDS011;50121;51.218;7.664;2024-02-15T08:41:38;10.43;;;4.70;;
63943;SDS011;50121;51.218;7.664;2024-02-15T08:44:06;11.77;;;4.55;;
63943;SDS011;50121;51.218;7.664;2024-02-15T08:46:38;7.38;;;4.50;;
63943;SDS011;50121;51.218;7.664;2024-02-15T08:49:05;9.50;;;5.00;;
63943;SDS011;50121;51.218;7.664;2024-02-15T08:51:33;12.30;;;6.50;;
63943;SDS011;50121;51.218;7.664;2024-02-15T08:54:00;8.82;;;4.53;;
63943;SDS011;50121;51.218;7.664;2024-02-15T08:56:28;8.63;;;4.90;;
63943;SDS011;50121;51.218;7.664;2024-02-15T08:58:55;7.55;;;4.47;;
63943;SDS011;50121;51.218;7.664;2024-02-15T09:01:25;8.45;;;4.80;;
63943;SDS011;50121;51.218;7.664;2024-02-15T09:03:53;8.05;;;4.38;;
63943;SDS011;50121;51.218;7.664;2024-02-15T09:06:20;5.00;;;4.22;;
63943;SDS011;50121;51.218;7.664;2024-02-15T09:08:49;5.57;;;4.32;;
63943;SDS011;50121;51.218;7.664;2024-02-15T09:11:17;6.03;;;4.00;;
63943;SDS011;50121;51.218;7.664;2024-02-15T09:13:45;6.18;;;4.22;;
63943;SDS011;50121;51.218;7.664;2024-02-15T09:16:13;7.30;;;4.20;;
63943;SDS011;50121;51.218;7.664;2024-02-15T09:18:40;5.60;;;4.10;;
63943;SDS011;50121;51.218;7.664;2024-02-15T09:21:12;7.72;;;4.07;;
63943;SDS011;50121;51.218;7.664;2024-02-15T09:23:40;5.68;;;4.20;;
63943;SDS011;50121;51.218;7.664;2024-02-15T09:26:08;5.65;;;4.20;;
63943;SDS011;50121;51.218;7.664;2024-02-15T09:28:36;5.80;;;3.90;;
63943;SDS011;50121;51.218;7.664;2024-02-15T09:31:04;4.85;;;4.10;;
63943;SDS011;50121;51.218;7.664;2024-02-15T09:33:32;6.20;;;4.25;;
63943;SDS011;50121;51.218;7.664;2024-02-15T09:35:59;4.50;;;3.92;;
63943;SDS011;50121;51.218;7.664;2024-02-15T09:38:27;6.15;;;4.00;;
63943;SDS011;50121;51.218;7.664;2024-02-15T09:40:55;7.43;;;4.00;;
63943;SDS011;50121;51.218;7.664;2024-02-15T09:43:26;4.55;;;3.65;;
63943;SDS011;50121;51.218;7.664;2024-02-15T09:45:56;5.10;;;3.72;;
63943;SDS011;50121;51.218;7.664;2024-02-15T09:48:24;7.10;;;3.92;;
63943;SDS011;50121;51.218;7.664;2024-02-15T09:50:52;5.82;;;4.05;;
63943;SDS011;50121;51.218;7.664;2024-02-15T09:53:21;6.28;;;4.10;;
63943;SDS011;50121;51.218;7.664;2024-02-15T09:55:55;6.38;;;4.30;;
63943;SDS011;50121;51.218;7.664;2024-02-15T09:58:30;5.78;;;4.05;;
63943;SDS011;50121;51.218;7.664;2024-02-15T10:01:04;8.45;;;4.05;;
63943;SDS011;50121;51.218;7.664;2024-02-15T10:03:37;5.82;;;3.90;;
63943;SDS011;50121;51.218;7.664;2024-02-15T10:06:07;6.47;;;4.10;;
63943;SDS011;50121;51.218;7.664;2024-02-15T10:08:34;6.15;;;4.35;;
63943;SDS011;50121;51.218;7.664;2024-02-15T10:11:05;5.47;;;3.88;;
63943;SDS011;50121;51.218;7.664;2024-02-15T10:13:35;5.97;;;3.90;;
63943;SDS011;50121;51.218;7.664;2024-02-15T10:16:13;9.77;;;4.10;;
63943;SDS011;50121;51.218;7.664;2024-02-15T10:18:41;8.25;;;3.85;;
63943;SDS011;50121;51.218;7.664;2024-02-15T10:21:09;8.80;;;3.90;;
63943;SDS011;50121;51.218;7.664;2024-02-15T10:23:37;8.57;;;3.90;;
63943;SDS011;50121;51.218;7.664;2024-02-15T10:26:19;5.10;;;3.60;;
63943;SDS011;50121;51.218;7.664;2024-02-15T10:29:01;4.90;;;3.47;;
63943;SDS011;50121;51.218;7.664;2024-02-15T10:31:32;7.22;;;4.03;;
63943;SDS011;50121;51.218;7.664;2024-02-15T10:34:03;4.28;;;3.70;;
63943;SDS011;50121;51.218;7.664;2024-02-15T10:36:31;4.75;;;3.65;;
63943;SDS011;50121;51.218;7.664;2024-02-15T10:39:15;4.03;;;3.72;;
63943;SDS011;50121;51.218;7.664;2024-02-15T10:41:47;7.10;;;4.13;;
63943;SDS011;50121;51.218;7.664;2024-02-15T10:44:15;6.20;;;4.20;;
63943;SDS011;50121;51.218;7.664;2024-02-15T10:46:47;6.78;;;4.25;;
63943;SDS011;50121;51.218;7.664;2024-02-15T10:49:21;8.07;;;4.72;;
63943;SDS011;50121;51.218;7.664;2024-02-15T10:51:56;6.85;;;4.30;;
63943;SDS011;50121;51.218;7.664;2024-02-15T10:56:56;6.20;;;4.03;;
63943;SDS011;50121;51.218;7.664;2024-02-15T10:59:28;7.32;;;4.15;;
63943;SDS011;50121;51.218;7.664;2024-02-15T11:01:59;8.48;;;4.30;;
63943;SDS011;50121;51.218;7.664;2024-02-15T11:04:31;3.92;;;3.60;;
63943;SDS011;50121;51.218;7.664;2024-02-15T11:07:01;5.65;;;3.85;;
63943;SDS011;50121;51.218;7.664;2024-02-15T11:09:32;4.30;;;3.90;;
63943;SDS011;50121;51.218;7.664;2024-02-15T11:12:00;5.88;;;3.90;;
63943;SDS011;50121;51.218;7.664;2024-02-15T11:16:56;14.40;;;7.68;;
63943;SDS011;50121;51.218;7.664;2024-02-15T11:22:09;5.90;;;3.95;;
63943;SDS011;50121;51.218;7.664;2024-02-15T11:24:37;5.88;;;4.30;;
63943;SDS011;50121;51.218;7.664;2024-02-15T11:27:13;4.40;;;4.00;;
63943;SDS011;50121;51.218;7.664;2024-02-15T11:32:34;4.03;;;3.63;;
63943;SDS011;50121;51.218;7.664;2024-02-15T11:35:12;3.95;;;3.70;;
63943;SDS011;50121;51.218;7.664;2024-02-15T11:42:54;6.75;;;3.95;;
63943;SDS011;50121;51.218;7.664;2024-02-15T11:45:24;4.93;;;4.20;;
63943;SDS011;50121;51.218;7.664;2024-02-15T11:47:55;4.82;;;3.80;;
63943;SDS011;50121;51.218;7.664;2024-02-15T11:50:22;4.00;;;3.70;;
63943;SDS011;50121;51.218;7.664;2024-02-15T11:52:50;4.13;;;3.80;;
63943;SDS011;50121;51.218;7.664;2024-02-15T11:55:21;4.57;;;4.05;;
63943;SDS011;50121;51.218;7.664;2024-02-15T11:57:59;5.15;;;3.72;;
63943;SDS011;50121;51.218;7.664;2024-02-15T12:00:36;4.25;;;3.95;;
63943;SDS011;50121;51.218;7.664;2024-02-15T12:03:23;6.50;;;4.47;;
63943;SDS011;50121;51.218;7.664;2024-02-15T12:06:17;4.40;;;4.00;;
63943;SDS011;50121;51.218;7.664;2024-02-15T12:09:04;5.72;;;3.60;;
63943;SDS011;50121;51.218;7.664;2024-02-15T12:11:58;6.90;;;3.97;;
63943;SDS011;50121;51.218;7.664;2024-02-15T12:14:44;5.75;;;4.10;;
63943;SDS011;50121;51.218;7.664;2024-02-15T12:17:30;5.70;;;3.92;;
63943;SDS011;50121;51.218;7.664;2024-02-15T12:20:16;4.90;;;4.40;;
63943;SDS011;50121;51.218;7.664;2024-02-15T12:22:53;6.63;;;4.35;;
63943;SDS011;50121;51.218;7.664;2024-02-15T12:25:21;4.60;;;4.18;;
63943;SDS011;50121;51.218;7.664;2024-02-15T12:27:54;5.55;;;4.10;;
63943;SDS011;50121;51.218;7.664;2024-02-15T12:30:22;7.80;;;4.30;;
63943;SDS011;50121;51.218;7.664;2024-02-15T12:32:52;6.03;;;4.57;;
63943;SDS011;50121;51.218;7.664;2024-02-15T12:35:21;5.53;;;3.90;;
63943;SDS011;50121;51.218;7.664;2024-02-15T12:38:01;5.85;;;3.97;;
63943;SDS011;50121;51.218;7.664;2024-02-15T12:40:32;8.15;;;3.63;;
63943;SDS011;50121;51.218;7.664;2024-02-15T12:43:00;4.50;;;3.75;;
63943;SDS011;50121;51.218;7.664;2024-02-15T12:45:28;6.55;;;3.80;;
63943;SDS011;50121;51.218;7.664;2024-02-15T12:47:56;4.72;;;4.00;;
63943;SDS011;50121;51.218;7.664;2024-02-15T12:50:28;4.03;;;3.72;;
63943;SDS011;50121;51.218;7.664;2024-02-15T12:52:56;5.32;;;4.60;;
63943;SDS011;50121;51.218;7.664;2024-02-15T12:55:31;4.43;;;4.13;;
63943;SDS011;50121;51.218;7.664;2024-02-15T12:58:01;4.85;;;4.47;;
63943;SDS011;50121;51.218;7.664;2024-02-15T13:00:31;5.78;;;4.70;;
63943;SDS011;50121;51.218;7.664;2024-02-15T13:03:01;5.07;;;4.60;;
63943;SDS011;50121;51.218;7.664;2024-02-15T13:05:30;5.72;;;5.25;;
63943;SDS011;50121;51.218;7.664;2024-02-15T13:07:58;5.82;;;5.32;;
63943;SDS011;50121;51.218;7.664;2024-02-15T13:10:27;5.50;;;5.00;;
63943;SDS011;50121;51.218;7.664;2024-02-15T13:12:55;7.43;;;6.05;;
63943;SDS011;50121;51.218;7.664;2024-02-15T13:15:24;7.82;;;4.93;;
63943;SDS011;50121;51.218;7.664;2024-02-15T13:17:59;6.68;;;5.40;;
63943;SDS011;50121;51.218;7.664;2024-02-15T13:20:27;5.30;;;4.80;;
63943;SDS011;50121;51.218;7.664;2024-02-15T13:23:02;5.40;;;4.88;;
63943;SDS011;50121;51.218;7.664;2024-02-15T13:25:35;4.30;;;3.90;;
63943;SDS011;50121;51.218;7.664;2024-02-15T13:28:04;5.60;;;5.00;;
63943;SDS011;50121;51.218;7.664;2024-02-15T13:30:32;5.18;;;4.78;;
63943;SDS011;50121;51.218;7.664;2024-02-15T13:32:59;5.35;;;4.85;;
63943;SDS011;50121;51.218;7.664;2024-02-15T13:35:28;5.20;;;4.75;;
63943;SDS011;50121;51.218;7.664;2024-02-15T13:37:56;5.45;;;4.95;;
63943;SDS011;50121;51.218;7.664;2024-02-15T13:40:27;6.57;;;5.88;;
63943;SDS011;50121;51.218;7.664;2024-02-15T13:43:00;5.72;;;4.57;;
63943;SDS011;50121;51.218;7.664;2024-02-15T13:45:32;5.60;;;5.10;;
63943;SDS011;50121;51.218;7.664;2024-02-15T13:48:04;5.30;;;4.80;;
63943;SDS011;50121;51.218;7.664;2024-02-15T13:50:33;5.32;;;4.82;;
63943;SDS011;50121;51.218;7.664;2024-02-15T13:53:01;5.40;;;4.90;;
63943;SDS011;50121;51.218;7.664;2024-02-15T13:55:29;6.15;;;5.10;;
63943;SDS011;50121;51.218;7.664;2024-02-15T13:57:56;5.50;;;4.97;;
63943;SDS011;50121;51.218;7.664;2024-02-15T14:00:25;5.60;;;5.10;;
63943;SDS011;50121;51.218;7.664;2024-02-15T14:03:01;5.70;;;5.20;;
63943;SDS011;50121;51.218;7.664;2024-02-15T14:05:29;7.97;;;6.10;;
63943;SDS011;50121;51.218;7.664;2024-02-15T14:07:58;8.60;;;6.15;;
63943;SDS011;50121;51.218;7.664;2024-02-15T14:10:27;8.15;;;5.53;;
63943;SDS011;50121;51.218;7.664;2024-02-15T14:12:55;5.18;;;4.80;;
63943;SDS011;50121;51.218;7.664;2024-02-15T14:15:25;5.47;;;4.85;;
63943;SDS011;50121;51.218;7.664;2024-02-15T14:17:53;5.45;;;5.05;;
63943;SDS011;50121;51.218;7.664;2024-02-15T14:20:22;5.25;;;4.75;;
63943;SDS011;50121;51.218;7.664;2024-02-15T14:22:50;5.85;;;4.60;;
63943;SDS011;50121;51.218;7.664;2024-02-15T14:25:24;4.90;;;4.50;;
63943;SDS011;50121;51.218;7.664;2024-02-15T14:27:55;6.78;;;4.90;;
63943;SDS011;50121;51.218;7.664;2024-02-15T14:30:24;5.03;;;4.60;;
63943;SDS011;50121;51.218;7.664;2024-02-15T14:33:11;11.88;;;8.25;;
63943;SDS011;50121;51.218;7.664;2024-02-15T14:35:46;5.93;;;4.28;;
63943;SDS011;50121;51.218;7.664;2024-02-15T14:38:14;4.82;;;4.40;;
63943;SDS011;50121;51.218;7.664;2024-02-15T14:40:43;4.85;;;4.45;;
63943;SDS011;50121;51.218;7.664;2024-02-15T14:43:12;4.40;;;4.07;;
63943;SDS011;50121;51.218;7.664;2024-02-15T14:45:44;4.95;;;4.10;;
63943;SDS011;50121;51.218;7.664;2024-02-15T14:48:13;4.75;;;4.35;;
63943;SDS011;50121;51.218;7.664;2024-02-15T14:50:40;4.38;;;3.97;;
63943;SDS011;50121;51.218;7.664;2024-02-15T14:53:08;4.80;;;4.28;;
63943;SDS011;50121;51.218;7.664;2024-02-15T14:55:36;5.13;;;4.53;;
63943;SDS011;50121;51.218;7.664;2024-02-15T14:58:09;4.60;;;4.20;;
63943;SDS011;50121;51.218;7.664;2024-02-15T15:00:41;4.07;;;3.70;;
63943;SDS011;50121;51.218;7.664;2024-02-15T15:03:11;5.65;;;4.60;;
63943;SDS011;50121;51.218;7.664;2024-02-15T15:05:42;5.75;;;4.07;;
63943;SDS011;50121;51.218;7.664;2024-02-15T15:08:28;6.17;;;4.37;;
63943;SDS011;50121;51.218;7.664;2024-02-15T15:11:15;11.02;;;8.10;;
63943;SDS011;50121;51.218;7.664;2024-02-15T15:14:01;4.50;;;4.10;;
63943;SDS011;50121;51.218;7.664;2024-02-15T15:16:31;7.47;;;4.80;;
63943;SDS011;50121;51.218;7.664;2024-02-15T15:18:59;6.60;;;4.30;;